Time;durP1;ratioP1;P1;durP2;ratioP2;P2;SDS_P1;SDS_P2;PMS_P1;PMS_P2;Temp;Humidity;BMP_temperature;BMP_pressure;BME280_temperature;BME280_humidity;BME280_pressure;Samples;Min_cycle;Max_cycle;Signal;HPM_P1;HPM_P2
2021/05/20 00:01:09;;;;;;;;;;;;;;;16.63;60.63;94130.63;5105940;28;19924;-77
2021/05/20 00:03:34;;;;;;;;;;;;;;;16.61;61.21;94132.00;5087348;28;19927;-78
2021/05/20 00:06:00;;;;;;;;;;;;;;;16.58;61.69;94138.56;5087915;28;19920;-78
2021/05/20 00:08:25;;;;;;;;;;;;;;;16.55;62.22;94135.72;5070165;28;19997;-79
2021/05/20 00:10:50;;;;;;;;;;;;;;;16.50;62.58;94136.59;5085581;28;19923;-78
2021/05/20 00:13:16;;;;;;;;;;;;;;;16.48;63.10;94150.00;5072203;28;19920;-78
2021/05/20 00:15:41;;;;;;;;;;;;;;;16.46;63.08;94153.97;5086830;28;19920;-79
2021/05/20 00:18:06;;;;;;;;;;;;;;;16.45;63.38;94147.19;5130655;22;20437;-78
2021/05/20 00:20:32;;;;;;;;;;;;;;;16.40;63.40;94147.22;5164480;22;19928;-79
2021/05/20 00:22:57;;;;;;;;;;;;;;;16.40;63.76;94139.34;5161496;22;19991;-77
2021/05/20 00:25:22;;;;;;;;;;;;;;;16.42;63.45;94140.63;5095724;28;19920;-78
2021/05/20 00:27:47;;;;;;;;;;;;;;;16.37;62.58;94138.09;5095631;28;19938;-78
2021/05/20 00:30:13;;;;;;;;;;;;;;;16.33;62.46;94131.06;5096928;28;19931;-78
2021/05/20 00:35:13;;;;;;;;;;;;;;;16.19;63.30;94133.63;5355448;22;19924;-79
2021/05/20 00:40:14;;;;;;;;;;;;;;;16.13;63.44;94119.78;5998522;22;19924;-79
2021/05/20 00:42:39;;;;;;;;;;;;;;;16.08;63.70;94127.72;5059915;28;19927;-80
2021/05/20 00:45:05;;;;;;;;;;;;;;;15.98;64.62;94119.22;5079688;22;20392;-79
2021/05/20 00:47:31;;;;;;;;;;;;;;;15.89;64.54;94116.41;5089700;22;19921;-78
2021/05/20 00:49:56;;;;;;;;;;;;;;;15.84;64.57;94116.50;5086099;28;19930;-80
2021/05/20 00:52:22;;;;;;;;;;;;;;;15.83;64.78;94125.44;5105111;28;20403;-79
2021/05/20 00:54:48;;;;;;;;;;;;;;;15.82;65.13;94129.09;5088249;28;20018;-79
2021/05/20 00:59:43;;;;;;;;;;;;;;;15.66;64.60;94135.59;5073873;28;19931;-79
2021/05/20 01:02:11;;;;;;;;;;;;;;;15.63;64.34;94130.91;5065583;28;19921;-78
2021/05/20 01:04:37;;;;;;;;;;;;;;;15.57;63.22;94133.53;5048789;28;20405;-78
2021/05/20 01:07:02;;;;;;;;;;;;;;;15.52;63.33;94125.75;5074250;28;19974;-78
2021/05/20 01:09:27;;;;;;;;;;;;;;;15.35;63.39;94108.91;5061234;28;19927;-79
2021/05/20 01:11:53;;;;;;;;;;;;;;;15.17;64.22;94108.56;5144414;22;19986;-79
2021/05/20 01:14:18;;;;;;;;;;;;;;;14.98;65.68;94103.25;5083320;28;19929;-78
2021/05/20 01:16:45;;;;;;;;;;;;;;;14.85;66.44;94100.47;5068733;28;19926;-78
2021/05/20 01:19:11;;;;;;;;;;;;;;;14.77;66.53;94101.84;5063825;28;19962;-79
2021/05/20 01:21:36;;;;;;;;;;;;;;;14.68;67.60;94109.50;5082227;28;19963;-78
2021/05/20 01:24:02;;;;;;;;;;;;;;;14.70;68.08;94099.53;5049900;28;19921;-78
2021/05/20 01:26:29;;;;;;;;;;;;;;;14.75;68.05;94106.56;5048875;28;19924;-78
2021/05/20 01:28:54;;;;;;;;;;;;;;;14.76;68.10;94097.66;5090072;28;20280;-77
2021/05/20 01:31:19;;;;;;;;;;;;;;;14.80;68.06;94096.03;5061132;28;19946;-77
2021/05/20 01:33:48;;;;;;;;;;;;;;;14.78;67.80;94087.69;5092711;22;19930;-78
2021/05/20 01:36:13;;;;;;;;;;;;;;;14.75;68.29;94077.00;5091024;28;19920;-78
2021/05/20 01:41:07;;;;;;;;;;;;;;;14.81;67.84;94068.06;5110679;28;19935;-76
2021/05/20 01:43:33;;;;;;;;;;;;;;;14.78;67.44;94074.59;5121367;22;19924;-78
2021/05/20 01:45:59;;;;;;;;;;;;;;;14.77;67.77;94070.44;5109143;28;19923;-79
2021/05/20 01:48:25;;;;;;;;;;;;;;;14.73;67.63;94066.03;5115516;22;20003;-77
2021/05/20 01:50:50;;;;;;;;;;;;;;;14.69;68.02;94063.19;5088131;28;20359;-79
2021/05/20 01:53:16;;;;;;;;;;;;;;;14.64;68.04;94057.97;5173367;22;19928;-79
2021/05/20 01:55:41;;;;;;;;;;;;;;;14.55;68.36;94054.41;5062518;28;19947;-79
2021/05/20 01:58:06;;;;;;;;;;;;;;;14.53;68.13;94041.59;5064499;28;19933;-80
2021/05/20 02:00:33;;;;;;;;;;;;;;;14.47;68.13;94041.91;5061170;28;19927;-80
2021/05/20 02:02:58;;;;;;;;;;;;;;;14.48;68.28;94046.06;5051939;28;19926;-79
2021/05/20 02:05:23;;;;;;;;;;;;;;;14.45;67.97;94034.34;5083990;28;19921;-79
2021/05/20 02:07:48;;;;;;;;;;;;;;;14.46;68.21;94037.72;5085399;28;19946;-80
2021/05/20 02:10:14;;;;;;;;;;;;;;;14.40;68.04;94042.97;5065694;28;19927;-80
2021/05/20 02:12:39;;;;;;;;;;;;;;;14.37;68.44;94043.53;5064359;28;19925;-77
2021/05/20 02:15:04;;;;;;;;;;;;;;;14.40;68.30;94045.59;5064223;28;19952;-79
2021/05/20 02:17:30;;;;;;;;;;;;;;;14.42;68.09;94045.31;5064772;28;20011;-79
2021/05/20 02:19:55;;;;;;;;;;;;;;;14.46;68.25;94040.34;5065357;28;19921;-78
2021/05/20 02:22:20;;;;;;;;;;;;;;;14.46;68.03;94045.56;5072296;28;19946;-79
2021/05/20 02:24:45;;;;;;;;;;;;;;;14.47;67.97;94047.13;5071684;28;19925;-79
2021/05/20 02:27:17;;;;;;;;;;;;;;;14.49;67.90;94037.19;5067603;28;19920;-80
2021/05/20 02:29:42;;;;;;;;;;;;;;;14.50;68.03;94036.16;5059242;28;20023;-79
2021/05/20 02:32:07;;;;;;;;;;;;;;;14.44;68.14;94026.75;5063814;28;19956;-79
2021/05/20 02:34:32;;;;;;;;;;;;;;;14.39;67.96;94028.34;5063354;28;19924;-79
2021/05/20 02:36:58;;;;;;;;;;;;;;;14.32;68.47;94025.28;5047739;28;20112;-79
2021/05/20 02:39:23;;;;;;;;;;;;;;;14.32;68.54;94022.66;5100721;23;20327;-79
2021/05/20 02:41:48;;;;;;;;;;;;;;;14.20;69.07;94022.22;5096018;28;20242;-79
2021/05/20 02:44:14;;;;;;;;;;;;;;;14.13;69.24;94026.97;5114277;28;19984;-79
2021/05/20 02:46:39;;;;;;;;;;;;;;;14.06;69.48;94026.50;5097073;28;19919;-79
2021/05/20 02:49:04;;;;;;;;;;;;;;;14.04;70.38;94026.78;5116891;28;19931;-79
2021/05/20 02:51:30;;;;;;;;;;;;;;;14.06;69.79;94027.28;5116518;28;20421;-79
2021/05/20 02:53:55;;;;;;;;;;;;;;;14.08;69.83;94029.63;5099547;28;19950;-78
2021/05/20 02:56:20;;;;;;;;;;;;;;;14.07;70.13;94023.63;5179823;22;19924;-79
2021/05/20 02:58:45;;;;;;;;;;;;;;;14.07;69.75;94023.63;5122149;22;20141;-79
2021/05/20 03:01:11;;;;;;;;;;;;;;;14.08;69.86;94030.41;5084036;22;19935;-78
2021/05/20 03:03:36;;;;;;;;;;;;;;;14.06;70.05;94027.28;5098875;22;19943;-78
2021/05/20 03:06:01;;;;;;;;;;;;;;;14.06;69.87;94031.72;5111096;28;19928;-78
2021/05/20 03:11:02;;;;;;;;;;;;;;;14.15;70.22;94045.78;5564458;22;19928;-78
2021/05/20 03:13:27;;;;;;;;;;;;;;;14.14;69.95;94052.06;5081618;28;20406;-79
2021/05/20 03:15:52;;;;;;;;;;;;;;;14.17;70.10;94054.16;5058449;28;19921;-78
2021/05/20 03:18:21;;;;;;;;;;;;;;;14.22;69.92;94056.72;5058766;28;19920;-78
2021/05/20 03:20:46;;;;;;;;;;;;;;;14.23;70.17;94057.50;5194248;22;19928;-79
2021/05/20 03:23:11;;;;;;;;;;;;;;;14.27;70.07;94064.53;5217439;22;19923;-80
2021/05/20 03:25:36;;;;;;;;;;;;;;;14.29;70.05;94078.09;5103669;28;19920;-79
2021/05/20 03:28:02;;;;;;;;;;;;;;;14.29;70.39;94080.72;5108178;28;19916;-80
2021/05/20 03:30:27;;;;;;;;;;;;;;;14.22;70.23;94077.63;5088088;28;19927;-79
2021/05/20 03:32:52;;;;;;;;;;;;;;;14.20;69.94;94087.59;5104722;28;19916;-79
2021/05/20 03:35:18;;;;;;;;;;;;;;;14.15;70.93;94098.06;5091524;28;19951;-79
2021/05/20 03:37:43;;;;;;;;;;;;;;;14.21;70.08;94097.00;5108720;28;19916;-80
2021/05/20 03:40:08;;;;;;;;;;;;;;;14.27;70.36;94095.13;5089123;28;20391;-80
2021/05/20 03:42:35;;;;;;;;;;;;;;;14.27;70.71;94103.75;5076164;28;19939;-79
2021/05/20 03:45:00;;;;;;;;;;;;;;;14.23;70.58;94109.78;5073823;28;19920;-81
2021/05/20 03:47:25;;;;;;;;;;;;;;;14.20;70.92;94116.34;5107861;28;20023;-81
2021/05/20 03:49:51;;;;;;;;;;;;;;;14.16;71.14;94120.56;5089484;28;19927;-82
2021/05/20 03:52:16;;;;;;;;;;;;;;;14.21;71.48;94122.38;5086044;28;19930;-77
2021/05/20 03:54:42;;;;;;;;;;;;;;;14.26;71.78;94117.88;5089026;28;19919;-80
2021/05/20 03:57:08;;;;;;;;;;;;;;;14.27;70.55;94122.06;5105350;28;20002;-80
2021/05/20 03:59:33;;;;;;;;;;;;;;;14.30;70.57;94124.13;5106632;28;20413;-80
2021/05/20 04:01:59;;;;;;;;;;;;;;;14.30;70.69;94131.19;5104223;28;19924;-82
2021/05/20 04:04:24;;;;;;;;;;;;;;;14.34;70.11;94127.00;5107589;28;19942;-80
2021/05/20 04:06:49;;;;;;;;;;;;;;;14.40;70.58;94121.44;5085540;28;20437;-83
2021/05/20 04:09:14;;;;;;;;;;;;;;;14.40;69.44;94121.44;5110640;28;19920;-82
2021/05/20 04:11:40;;;;;;;;;;;;;;;14.50;69.71;94125.09;5111640;28;19931;-81
2021/05/20 04:14:05;;;;;;;;;;;;;;;14.51;68.91;94129.28;5096332;28;19916;-82
2021/05/20 04:16:30;;;;;;;;;;;;;;;14.53;68.42;94129.78;5094232;28;19993;-80
2021/05/20 04:21:31;;;;;;;;;;;;;;;14.63;68.29;94135.69;5186620;22;19928;-79
2021/05/20 04:23:57;;;;;;;;;;;;;;;14.65;67.46;94132.84;5119904;22;19931;-81
2021/05/20 04:26:22;;;;;;;;;;;;;;;14.74;66.32;94120.72;5117220;28;19981;-80
2021/05/20 04:28:47;;;;;;;;;;;;;;;14.86;65.89;94122.97;5106583;28;19923;-80
2021/05/20 04:31:16;;;;;;;;;;;;;;;15.00;65.30;94119.44;5119930;22;19966;-80
2021/05/20 04:33:41;;;;;;;;;;;;;;;15.18;65.15;94130.28;5121730;22;20010;-80
2021/05/20 04:36:07;;;;;;;;;;;;;;;15.28;64.11;94135.41;5388259;22;19931;-79
2021/05/20 04:38:32;;;;;;;;;;;;;;;15.52;63.56;94135.44;5129297;22;19928;-80
2021/05/20 04:40:58;;;;;;;;;;;;;;;15.79;62.82;94140.94;5086196;28;20350;-79
2021/05/20 04:43:30;;;;;;;;;;;;;;;16.31;61.04;94133.19;5082744;28;19932;-81
2021/05/20 04:45:55;;;;;;;;;;;;;;;16.55;59.42;94136.50;5074438;28;19921;-81
2021/05/20 04:48:20;;;;;;;;;;;;;;;16.53;59.38;94143.91;5126006;22;20018;-81
2021/05/20 04:50:45;;;;;;;;;;;;;;;16.45;60.09;94158.44;5080319;28;19920;-79
2021/05/20 04:53:11;;;;;;;;;;;;;;;16.53;60.00;94154.41;5083879;28;20396;-80
2021/05/20 04:55:36;;;;;;;;;;;;;;;16.53;59.62;94149.16;5075360;28;19942;-80
2021/05/20 04:58:01;;;;;;;;;;;;;;;16.44;60.48;94148.25;5067277;28;19966;-80
2021/05/20 05:00:27;;;;;;;;;;;;;;;16.35;61.22;94142.06;5046712;28;19920;-80
2021/05/20 05:02:52;;;;;;;;;;;;;;;16.32;61.49;94142.63;5083720;28;19920;-80
2021/05/20 05:05:17;;;;;;;;;;;;;;;16.33;60.21;94128.44;5086062;28;19927;-81
2021/05/20 05:07:43;;;;;;;;;;;;;;;16.34;60.50;94141.28;5064516;28;19924;-85
2021/05/20 05:10:09;;;;;;;;;;;;;;;16.48;59.83;94151.84;5092893;28;20334;-82
2021/05/20 05:12:34;;;;;;;;;;;;;;;16.56;60.17;94164.31;5094787;28;19920;-82
2021/05/20 05:14:59;;;;;;;;;;;;;;;16.63;60.04;94156.09;5086038;28;19935;-82
2021/05/20 05:17:25;;;;;;;;;;;;;;;16.67;59.65;94165.78;5087569;28;19928;-85
2021/05/20 05:19:50;;;;;;;;;;;;;;;16.70;60.28;94149.44;5078407;28;19920;-78
2021/05/20 05:22:15;;;;;;;;;;;;;;;16.70;59.91;94154.69;5067773;28;19920;-78
2021/05/20 05:24:41;;;;;;;;;;;;;;;16.97;58.61;94158.50;5085255;28;19920;-78
2021/05/20 05:27:06;;;;;;;;;;;;;;;16.90;57.88;94163.31;5049655;28;19920;-78
2021/05/20 05:29:33;;;;;;;;;;;;;;;16.58;58.20;94161.41;5051811;28;20011;-78
2021/05/20 05:31:58;;;;;;;;;;;;;;;16.20;59.31;94172.69;5064268;28;19920;-78
2021/05/20 05:34:24;;;;;;;;;;;;;;;15.84;61.00;94168.94;5088693;28;19935;-78
2021/05/20 05:36:49;;;;;;;;;;;;;;;15.45;62.71;94176.91;5080254;28;19954;-76
2021/05/20 05:39:14;;;;;;;;;;;;;;;15.21;63.33;94167.19;5084792;28;19961;-76
2021/05/20 05:41:40;;;;;;;;;;;;;;;14.94;63.10;94157.19;5083687;28;19920;-78
2021/05/20 05:44:05;;;;;;;;;;;;;;;14.71;62.80;94163.91;5083082;28;19936;-78
2021/05/20 05:46:30;;;;;;;;;;;;;;;14.45;63.29;94159.13;5065560;28;19920;-77
2021/05/20 05:48:58;;;;;;;;;;;;;;;14.15;63.75;94179.13;5071397;28;19920;-77
2021/05/20 05:51:25;;;;;;;;;;;;;;;14.02;64.96;94187.56;5083964;28;19924;-78
2021/05/20 05:53:52;;;;;;;;;;;;;;;13.94;64.20;94203.78;5079739;28;20173;-78
2021/05/20 05:56:17;;;;;;;;;;;;;;;13.82;65.66;94219.75;5080219;28;20243;-77
2021/05/20 05:58:42;;;;;;;;;;;;;;;13.86;64.82;94220.03;5092512;22;19967;-78
2021/05/20 06:01:08;;;;;;;;;;;;;;;13.81;65.68;94221.59;5086675;28;19927;-78
2021/05/20 06:03:33;;;;;;;;;;;;;;;13.76;64.53;94239.91;5083220;28;20311;-78
2021/05/20 06:05:58;;;;;;;;;;;;;;;13.74;65.58;94259.50;5086457;28;19980;-78
2021/05/20 06:08:24;;;;;;;;;;;;;;;13.62;66.18;94272.84;5067741;28;19921;-78
2021/05/20 06:10:49;;;;;;;;;;;;;;;13.43;66.46;94274.44;5069739;28;20101;-78
2021/05/20 06:13:14;;;;;;;;;;;;;;;13.33;68.25;94274.44;5065593;28;19925;-78
2021/05/20 06:15:40;;;;;;;;;;;;;;;13.37;67.26;94265.03;5084320;28;19920;-78
2021/05/20 06:18:05;;;;;;;;;;;;;;;13.40;67.36;94252.25;5065101;28;19931;-79
2021/05/20 06:20:31;;;;;;;;;;;;;;;13.50;67.62;94251.44;5080806;28;20392;-78
2021/05/20 06:22:56;;;;;;;;;;;;;;;13.70;66.54;94246.19;5082858;28;19920;-79
2021/05/20 06:25:23;;;;;;;;;;;;;;;13.84;63.71;94245.66;5090128;28;19916;-78
2021/05/20 06:27:48;;;;;;;;;;;;;;;13.91;64.04;94243.53;5038594;28;19931;-78
2021/05/20 06:30:13;;;;;;;;;;;;;;;13.94;62.67;94258.69;5082985;28;19921;-77
2021/05/20 06:35:49;;;;;;;;;;;;;;;14.01;63.70;94239.06;5085031;28;19949;-77
2021/05/20 06:38:14;;;;;;;;;;;;;;;14.07;61.72;94242.44;5084544;28;20475;-77
2021/05/20 06:40:39;;;;;;;;;;;;;;;14.20;61.58;94247.09;5064490;28;20459;-78
2021/05/20 06:43:05;;;;;;;;;;;;;;;14.27;62.26;94260.66;5071590;28;19979;-78
2021/05/20 06:45:30;;;;;;;;;;;;;;;14.31;61.88;94264.28;5072417;28;19930;-78
2021/05/20 06:47:55;;;;;;;;;;;;;;;14.33;61.49;94261.44;5080987;28;19944;-78
2021/05/20 06:50:21;;;;;;;;;;;;;;;14.21;62.32;94259.13;5082364;28;19924;-77
2021/05/20 06:52:47;;;;;;;;;;;;;;;14.29;60.93;94268.22;5077242;28;19928;-77
2021/05/20 06:55:12;;;;;;;;;;;;;;;14.28;62.66;94267.44;5067801;28;19978;-77
2021/05/20 07:00:21;;;;;;;;;;;;;;;14.71;61.64;94254.72;5084637;28;19969;-77
2021/05/20 07:02:47;;;;;;;;;;;;;;;14.98;60.49;94242.00;5050413;28;19920;-77
2021/05/20 07:05:12;;;;;;;;;;;;;;;15.17;59.02;94254.44;5090960;28;20619;-77
2021/05/20 07:07:41;;;;;;;;;;;;;;;15.38;58.65;94262.91;5068568;28;20011;-77
2021/05/20 07:10:07;;;;;;;;;;;;;;;15.52;57.83;94262.00;5069514;28;19974;-78
2021/05/20 07:12:32;;;;;;;;;;;;;;;15.65;56.69;94262.44;5046207;28;19917;-77
2021/05/20 07:14:58;;;;;;;;;;;;;;;15.87;56.64;94265.38;5062898;28;19930;-77
2021/05/20 07:17:24;;;;;;;;;;;;;;;16.20;56.34;94271.59;5080746;28;19967;-76
2021/05/20 07:19:49;;;;;;;;;;;;;;;16.55;54.00;94267.75;5055819;28;20198;-76
2021/05/20 07:22:15;;;;;;;;;;;;;;;16.85;53.12;94276.31;5076205;28;20002;-77
2021/05/20 07:24:42;;;;;;;;;;;;;;;17.07;50.42;94279.16;5081708;28;20422;-77
2021/05/20 07:27:07;;;;;;;;;;;;;;;17.13;51.59;94267.53;5079520;28;19920;-77
2021/05/20 07:29:32;;;;;;;;;;;;;;;17.01;51.25;94275.84;5067815;28;19942;-78
2021/05/20 07:31:58;;;;;;;;;;;;;;;16.97;50.22;94274.06;5092189;28;19921;-78
2021/05/20 07:34:23;;;;;;;;;;;;;;;16.99;51.31;94271.94;5096951;28;20014;-78
2021/05/20 07:36:48;;;;;;;;;;;;;;;16.90;52.36;94263.91;5066700;28;20383;-76
2021/05/20 07:39:15;;;;;;;;;;;;;;;16.87;53.28;94263.69;5080710;28;19962;-77
2021/05/20 07:41:41;;;;;;;;;;;;;;;16.74;52.74;94259.91;5061556;28;19920;-78
2021/05/20 07:44:07;;;;;;;;;;;;;;;16.73;53.10;94264.38;5060969;28;19942;-77
2021/05/20 07:46:32;;;;;;;;;;;;;;;16.96;51.23;94270.66;5042328;28;20454;-77
2021/05/20 07:48:57;;;;;;;;;;;;;;;17.16;51.85;94258.28;5078196;28;19939;-77
2021/05/20 07:51:22;;;;;;;;;;;;;;;17.45;50.69;94273.88;5061872;28;19931;-77
2021/05/20 07:53:48;;;;;;;;;;;;;;;17.33;50.03;94275.09;5059519;28;19923;-77
2021/05/20 07:56:13;;;;;;;;;;;;;;;17.28;48.50;94269.94;5078562;28;19920;-77
2021/05/20 07:58:38;;;;;;;;;;;;;;;17.33;49.39;94269.06;5078694;28;19917;-77
2021/05/20 08:01:04;;;;;;;;;;;;;;;17.42;47.13;94264.72;5069416;28;20315;-77
2021/05/20 08:09:13;;;;;;;;;;;;;;;17.40;47.51;94298.38;5077679;28;20343;-77
2021/05/20 08:11:38;;;;;;;;;;;;;;;17.27;49.32;94310.41;5080298;28;19928;-78
2021/05/20 08:14:03;;;;;;;;;;;;;;;17.30;49.00;94304.56;5081597;28;19949;-77
2021/05/20 08:16:28;;;;;;;;;;;;;;;17.30;50.00;94304.56;5082791;28;19921;-77
2021/05/20 08:18:55;;;;;;;;;;;;;;;17.42;47.01;94306.00;5062194;28;19924;-78
2021/05/20 08:21:20;;;;;;;;;;;;;;;17.39;47.20;94315.22;5485640;22;19945;-77
2021/05/20 08:23:45;;;;;;;;;;;;;;;17.32;47.30;94318.22;5031955;28;20020;-77
2021/05/20 08:26:13;;;;;;;;;;;;;;;17.51;47.12;94312.94;5018054;28;19928;-77
2021/05/20 08:28:38;;;;;;;;;;;;;;;17.65;47.01;94315.59;5037634;22;19974;-77
2021/05/20 08:31:03;;;;;;;;;;;;;;;17.85;47.12;94311.88;5081282;28;20324;-78
2021/05/20 08:33:28;;;;;;;;;;;;;;;18.18;46.82;94317.88;5083116;28;19926;-78
2021/05/20 08:35:55;;;;;;;;;;;;;;;18.30;45.29;94318.19;5065647;28;19955;-78
2021/05/20 08:38:20;;;;;;;;;;;;;;;18.34;44.53;94334.97;5054148;28;19931;-78
2021/05/20 08:40:45;;;;;;;;;;;;;;;18.17;43.40;94332.13;5081807;28;19928;-77
2021/05/20 08:43:11;;;;;;;;;;;;;;;17.83;43.20;94327.97;5055322;28;19916;-77
2021/05/20 08:45:38;;;;;;;;;;;;;;;17.82;42.32;94322.97;5052842;28;19924;-77
2021/05/20 08:48:03;;;;;;;;;;;;;;;17.93;42.11;94333.06;5061498;28;20003;-77
2021/05/20 08:53:31;;;;;;;;;;;;;;;18.39;41.66;94328.84;5886404;22;20031;-77
2021/05/20 08:55:57;;;;;;;;;;;;;;;18.69;41.18;94327.47;5091663;28;19928;-77
2021/05/20 08:58:25;;;;;;;;;;;;;;;18.80;40.84;94329.63;5091686;28;19916;-77
2021/05/20 09:00:51;;;;;;;;;;;;;;;19.19;42.33;94336.97;5091771;28;19924;-78
2021/05/20 09:03:16;;;;;;;;;;;;;;;19.41;39.89;94322.25;5090585;28;19977;-77
2021/05/20 09:05:42;;;;;;;;;;;;;;;19.47;40.67;94323.69;5057673;28;19931;-77
2021/05/20 09:08:14;;;;;;;;;;;;;;;19.75;41.32;94319.91;5093101;28;19924;-77
2021/05/20 09:10:40;;;;;;;;;;;;;;;19.94;36.94;94314.41;5075748;28;20280;-77
2021/05/20 09:13:12;;;;;;;;;;;;;;;19.91;37.42;94322.94;5073237;28;20372;-77
2021/05/20 09:15:38;;;;;;;;;;;;;;;19.97;36.88;94323.59;5072834;28;19920;-77
2021/05/20 09:18:06;;;;;;;;;;;;;;;20.08;38.63;94311.69;5055407;28;20387;-77
2021/05/20 09:20:32;;;;;;;;;;;;;;;20.21;37.54;94318.75;5073537;28;19923;-77
2021/05/20 09:23:01;;;;;;;;;;;;;;;20.20;37.54;94317.19;5072452;28;20054;-77
2021/05/20 09:25:28;;;;;;;;;;;;;;;20.02;38.41;94318.19;5073030;28;20295;-77
2021/05/20 09:27:53;;;;;;;;;;;;;;;19.85;39.40;94315.44;5075432;28;19924;-77
2021/05/20 09:30:19;;;;;;;;;;;;;;;19.73;38.50;94319.44;5848191;22;21211;-77
2021/05/20 09:32:47;;;;;;;;;;;;;;;19.79;38.83;94318.22;5112792;28;19970;-76
2021/05/20 09:35:12;;;;;;;;;;;;;;;19.63;38.88;94314.38;5122536;28;19919;-79
2021/05/20 09:37:49;;;;;;;;;;;;;;;19.60;39.42;94312.34;5123447;28;20375;-77
2021/05/20 09:40:15;;;;;;;;;;;;;;;19.65;39.15;94309.56;5103477;28;20668;-79
2021/05/20 09:45:18;;;;;;;;;;;;;;;19.81;39.35;94304.72;5624976;22;19932;-77
2021/05/20 09:47:43;;;;;;;;;;;;;;;19.75;38.34;94298.00;5032504;28;20017;-78
2021/05/20 09:50:09;;;;;;;;;;;;;;;19.45;39.22;94307.41;5041363;28;19967;-77
2021/05/20 09:52:35;;;;;;;;;;;;;;;19.52;40.29;94299.84;5025415;28;19925;-77
2021/05/20 09:55:00;;;;;;;;;;;;;;;19.54;40.35;94307.47;5025337;28;19928;-77
2021/05/20 09:57:26;;;;;;;;;;;;;;;19.62;39.90;94307.53;5026466;28;19943;-77
2021/05/20 09:59:58;;;;;;;;;;;;;;;19.77;40.73;94293.22;5042663;28;20004;-78
2021/05/20 10:02:23;;;;;;;;;;;;;;;19.86;38.74;94303.84;5031148;28;19928;-78
2021/05/20 10:04:51;;;;;;;;;;;;;;;19.93;38.94;94296.25;5123875;22;19932;-77
2021/05/20 10:07:25;;;;;;;;;;;;;;;19.89;37.29;94295.31;5073390;28;19947;-77
2021/05/20 10:09:50;;;;;;;;;;;;;;;19.50;38.63;94300.13;5073396;28;19941;-77
2021/05/20 10:12:15;;;;;;;;;;;;;;;19.22;39.94;94296.06;5053188;28;19982;-77
2021/05/20 10:14:41;;;;;;;;;;;;;;;19.02;40.84;94299.91;5070625;28;19917;-78
2021/05/20 10:17:06;;;;;;;;;;;;;;;19.08;41.70;94304.00;5829931;22;19929;-78
2021/05/20 10:19:31;;;;;;;;;;;;;;;19.28;40.85;94302.00;5101437;28;19928;-78
2021/05/20 10:21:57;;;;;;;;;;;;;;;19.39;40.42;94290.16;5085020;28;19920;-78
2021/05/20 10:24:22;;;;;;;;;;;;;;;19.46;40.08;94279.94;5101516;28;20015;-78
2021/05/20 10:26:47;;;;;;;;;;;;;;;19.52;39.99;94286.66;5083725;28;19920;-78
2021/05/20 10:29:13;;;;;;;;;;;;;;;19.57;39.38;94277.88;5082158;28;20011;-77
2021/05/20 10:31:41;;;;;;;;;;;;;;;19.65;39.29;94275.28;5149569;22;19980;-77
2021/05/20 10:34:07;;;;;;;;;;;;;;;19.56;38.55;94279.75;5130960;27;19930;-77
2021/05/20 10:36:33;;;;;;;;;;;;;;;19.40;39.24;94289.06;5126900;27;19999;-78
2021/05/20 10:38:58;;;;;;;;;;;;;;;19.29;39.98;94287.72;5122810;27;20023;-78
2021/05/20 10:41:26;;;;;;;;;;;;;;;19.43;40.30;94291.88;5121263;28;19971;-78
2021/05/20 10:44:03;;;;;;;;;;;;;;;19.60;39.51;94285.97;5104682;28;19931;-78
2021/05/20 10:46:29;;;;;;;;;;;;;;;19.73;38.96;94282.50;5103821;28;19930;-77
2021/05/20 10:48:58;;;;;;;;;;;;;;;19.80;38.94;94279.41;5105477;28;19919;-77
2021/05/20 10:51:27;;;;;;;;;;;;;;;19.56;38.51;94290.28;5110454;22;20074;-77
2021/05/20 10:54:04;;;;;;;;;;;;;;;19.37;39.58;94284.41;5109406;28;20402;-77
2021/05/20 10:56:33;;;;;;;;;;;;;;;19.46;40.14;94282.59;5197424;22;19928;-77
2021/05/20 10:58:58;;;;;;;;;;;;;;;19.67;39.32;94273.13;5095111;28;19923;-77
2021/05/20 11:01:24;;;;;;;;;;;;;;;19.98;39.81;94280.28;5104329;28;20394;-77
2021/05/20 11:03:49;;;;;;;;;;;;;;;20.09;38.61;94273.66;5101161;28;19943;-77
2021/05/20 11:06:15;;;;;;;;;;;;;;;20.14;38.59;94276.16;5106227;22;19927;-77
2021/05/20 11:08:46;;;;;;;;;;;;;;;19.96;38.15;94270.03;5140708;22;19928;-77
2021/05/20 11:11:21;;;;;;;;;;;;;;;19.69;38.00;94259.66;5081387;28;20379;-78
2021/05/20 11:13:49;;;;;;;;;;;;;;;19.24;38.56;94248.31;5102459;28;19962;-76
2021/05/20 11:16:15;;;;;;;;;;;;;;;19.04;39.31;94254.84;5103098;28;20007;-78
2021/05/20 11:18:41;;;;;;;;;;;;;;;18.92;40.67;94249.31;5068480;28;20003;-79
2021/05/20 11:21:06;;;;;;;;;;;;;;;18.85;38.72;94247.84;5105573;28;19926;-78
2021/05/20 11:23:32;;;;;;;;;;;;;;;18.77;38.65;94247.78;5104788;28;20006;-79
2021/05/20 11:25:58;;;;;;;;;;;;;;;18.46;38.95;94237.06;5095304;28;19924;-79
2021/05/20 11:28:24;;;;;;;;;;;;;;;18.50;39.76;94240.66;5104477;28;20383;-79
2021/05/20 11:30:54;;;;;;;;;;;;;;;18.41;39.91;94247.72;5083725;28;19924;-78
2021/05/20 11:33:22;;;;;;;;;;;;;;;18.46;40.61;94240.47;5084522;28;19924;-79
2021/05/20 11:36:11;;;;;;;;;;;;;;;18.52;40.25;94239.28;5086221;28;20031;-78
2021/05/20 11:38:36;;;;;;;;;;;;;;;18.41;37.93;94243.22;5088351;28;19920;-79
2021/05/20 11:41:14;;;;;;;;;;;;;;;18.37;38.41;94236.97;5085004;28;19946;-78
2021/05/20 11:43:41;;;;;;;;;;;;;;;18.34;38.47;94231.53;5078065;22;19951;-78
2021/05/20 11:46:17;;;;;;;;;;;;;;;18.32;39.76;94236.31;5072368;28;19920;-78
2021/05/20 11:48:59;;;;;;;;;;;;;;;18.29;40.66;94235.81;5065979;28;19925;-78
2021/05/20 11:51:49;;;;;;;;;;;;;;;18.25;41.10;94237.50;5063553;28;19920;-78
2021/05/20 11:54:15;;;;;;;;;;;;;;;18.27;40.37;94242.47;5100674;22;19932;-78
2021/05/20 11:56:53;;;;;;;;;;;;;;;18.28;41.97;94238.75;5078800;28;19920;-78
2021/05/20 11:59:34;;;;;;;;;;;;;;;18.46;40.57;94235.22;5118720;28;19919;-78
2021/05/20 12:01:59;;;;;;;;;;;;;;;18.68;40.37;94225.84;5121020;28;19920;-78
2021/05/20 12:04:25;;;;;;;;;;;;;;;18.76;40.31;94238.31;5119829;28;19930;-78
2021/05/20 12:06:50;;;;;;;;;;;;;;;18.82;40.74;94248.44;5120649;28;19965;-78
2021/05/20 12:09:15;;;;;;;;;;;;;;;18.96;41.42;94231.81;5077564;28;19927;-78
2021/05/20 12:11:41;;;;;;;;;;;;;;;18.99;40.72;94232.00;5078501;28;20435;-78
2021/05/20 12:14:21;;;;;;;;;;;;;;;19.10;41.19;94233.34;5120922;28;20010;-78
2021/05/20 12:16:56;;;;;;;;;;;;;;;19.00;40.74;94233.56;5120333;28;19919;-78
2021/05/20 12:19:30;;;;;;;;;;;;;;;18.89;40.37;94230.38;5121607;28;19924;-77
2021/05/20 12:22:01;;;;;;;;;;;;;;;19.00;40.58;94223.00;5124780;28;19930;-78
2021/05/20 12:27:11;;;;;;;;;;;;;;;18.64;41.57;94224.88;5151091;22;19924;-78
2021/05/20 12:29:39;;;;;;;;;;;;;;;18.45;41.56;94228.41;5087072;28;19943;-79
2021/05/20 12:32:06;;;;;;;;;;;;;;;18.34;41.21;94224.41;5088416;28;19924;-78
2021/05/20 12:34:31;;;;;;;;;;;;;;;18.33;42.77;94230.75;5128091;22;19967;-78
2021/05/20 12:37:03;;;;;;;;;;;;;;;18.43;42.16;94227.13;5107161;28;19939;-78
2021/05/20 12:39:31;;;;;;;;;;;;;;;18.37;40.02;94220.41;5103319;28;19923;-78
2021/05/20 12:41:57;;;;;;;;;;;;;;;18.48;41.44;94227.81;5088319;28;19920;-79
2021/05/20 12:44:22;;;;;;;;;;;;;;;18.65;40.82;94229.84;5106624;28;19916;-79
2021/05/20 12:46:53;;;;;;;;;;;;;;;18.84;40.44;94230.47;5107379;28;19927;-79
2021/05/20 12:49:19;;;;;;;;;;;;;;;18.96;40.92;94235.22;5109297;28;20326;-79
2021/05/20 12:51:56;;;;;;;;;;;;;;;19.03;38.41;94232.94;5227569;22;20053;-78
2021/05/20 12:54:25;;;;;;;;;;;;;;;19.07;38.36;94230.53;5035339;28;19947;-79
2021/05/20 12:56:50;;;;;;;;;;;;;;;19.15;38.35;94238.47;5036085;28;20000;-79
2021/05/20 12:59:16;;;;;;;;;;;;;;;19.26;37.60;94235.63;5033351;28;20273;-79
2021/05/20 13:01:46;;;;;;;;;;;;;;;19.37;38.38;94247.50;5035558;28;19921;-79
2021/05/20 13:04:17;;;;;;;;;;;;;;;19.43;36.87;94241.78;5035200;28;19921;-79
2021/05/20 13:06:43;;;;;;;;;;;;;;;19.42;36.55;94242.88;5035562;28;20024;-78
2021/05/20 13:09:09;;;;;;;;;;;;;;;19.47;37.64;94237.47;5033669;28;20040;-77
2021/05/20 13:11:37;;;;;;;;;;;;;;;19.48;37.74;94230.31;5040517;28;19944;-78
2021/05/20 13:24:33;;;;;;;;;;;;;;;19.03;37.90;94211.09;5039232;28;19932;-82
2021/05/20 13:26:58;;;;;;;;;;;;;;;18.63;39.06;94208.31;5038428;28;19925;-82
2021/05/20 13:29:24;;;;;;;;;;;;;;;18.27;39.36;94209.03;5035828;28;19921;-83